createdAt,value
2023-05-16T00:01:52.348Z,0.80
2023-05-16T00:04:21.564Z,1.52
2023-05-16T00:06:49.703Z,1.00
2023-05-16T00:09:17.903Z,1.02
2023-05-16T00:11:47.032Z,1.30
2023-05-16T00:14:16.682Z,1.00
2023-05-16T00:16:44.898Z,1.25
2023-05-16T00:19:13.860Z,1.20
2023-05-16T00:21:42.206Z,1.67
2023-05-16T00:24:10.431Z,1.05
2023-05-16T00:26:38.615Z,1.30
2023-05-16T00:29:06.957Z,1.27
2023-05-16T00:31:36.680Z,1.30
2023-05-16T00:34:04.878Z,1.40
2023-05-16T00:36:33.125Z,1.25
2023-05-16T00:39:01.334Z,1.30
2023-05-16T00:41:29.509Z,1.45
2023-05-16T00:43:57.659Z,1.00
2023-05-16T00:46:25.847Z,1.50
2023-05-16T00:48:55.476Z,1.27
2023-05-16T00:51:23.695Z,3.05
2023-05-16T00:53:51.953Z,1.15
2023-05-16T00:56:20.221Z,1.15
2023-05-16T00:58:48.505Z,1.52
2023-05-16T01:01:17.068Z,1.63
2023-05-16T01:03:47.168Z,1.67
2023-05-16T01:06:16.905Z,1.35
2023-05-16T01:08:45.065Z,1.00
2023-05-16T01:11:23.710Z,1.30
2023-05-16T01:14:01.999Z,1.65
2023-05-16T01:16:38.766Z,1.35
2023-05-16T01:19:16.511Z,1.00
2023-05-16T01:21:57.636Z,1.23
2023-05-16T01:24:34.472Z,1.55
2023-05-16T01:27:06.208Z,1.73
2023-05-16T01:29:34.393Z,1.33
2023-05-16T01:32:02.665Z,1.40
2023-05-16T01:34:30.918Z,1.35
2023-05-16T01:37:08.174Z,1.10
2023-05-16T01:39:43.357Z,1.38
2023-05-16T01:42:15.880Z,1.35
2023-05-16T01:44:49.257Z,1.50
2023-05-16T01:47:19.083Z,1.23
2023-05-16T01:49:56.295Z,1.27
2023-05-16T01:52:29.710Z,1.48
2023-05-16T01:55:00.549Z,1.10
2023-05-16T01:57:31.194Z,1.98
2023-05-16T01:59:59.996Z,1.17
2023-05-16T02:02:28.204Z,1.77
2023-05-16T02:04:56.330Z,1.40
2023-05-16T02:07:25.127Z,1.38
2023-05-16T02:09:53.326Z,0.90
2023-05-16T02:12:21.481Z,1.55
2023-05-16T02:14:51.760Z,1.42
2023-05-16T02:17:19.968Z,1.63
2023-05-16T02:19:48.530Z,1.73
2023-05-16T02:22:16.675Z,1.30
2023-05-16T02:24:45.040Z,2.13
2023-05-16T02:27:13.194Z,0.88
2023-05-16T02:29:41.256Z,1.52
2023-05-16T02:32:10.937Z,1.45
2023-05-16T02:34:39.177Z,1.40
2023-05-16T02:37:07.398Z,1.65
2023-05-16T02:39:35.579Z,1.50
2023-05-16T02:42:03.732Z,1.60
2023-05-16T02:44:31.922Z,1.48
2023-05-16T02:47:00.139Z,1.45
2023-05-16T02:49:29.703Z,1.80
2023-05-16T02:51:57.889Z,2.10
2023-05-16T02:54:26.337Z,1.67
2023-05-16T02:56:54.707Z,1.55
2023-05-16T02:59:22.812Z,1.45
2023-05-16T03:01:51.051Z,1.90
2023-05-16T03:04:19.465Z,1.30
2023-05-16T03:06:49.006Z,2.25
2023-05-16T03:09:17.205Z,2.63
2023-05-16T03:11:45.444Z,1.80
2023-05-16T03:14:13.664Z,1.38
2023-05-16T03:16:44.043Z,1.65
2023-05-16T03:19:12.320Z,1.20
2023-05-16T03:21:40.689Z,1.50
2023-05-16T03:24:12.015Z,1.15
2023-05-16T03:26:40.237Z,1.50
2023-05-16T03:29:08.401Z,1.45
2023-05-16T03:31:37.201Z,1.20
2023-05-16T03:34:05.371Z,1.35
2023-05-16T03:36:33.526Z,1.25
2023-05-16T03:39:01.701Z,1.63
2023-05-16T03:41:31.272Z,1.30
2023-05-16T03:43:59.331Z,1.80
2023-05-16T03:46:27.867Z,1.63
2023-05-16T03:48:56.003Z,1.27
2023-05-16T03:51:24.305Z,1.60
2023-05-16T03:53:52.413Z,1.95
2023-05-16T03:56:21.916Z,1.40
2023-05-16T03:58:51.484Z,1.35
2023-05-16T04:01:19.741Z,2.05
2023-05-16T04:03:48.034Z,1.40
2023-05-16T04:06:16.537Z,1.50
2023-05-16T04:08:45.150Z,1.33
2023-05-16T04:11:13.354Z,1.15
2023-05-16T04:13:41.626Z,1.25
2023-05-16T04:16:11.218Z,1.35
2023-05-16T04:18:39.374Z,1.50
2023-05-16T04:21:07.751Z,1.50
2023-05-16T04:23:35.911Z,1.77
2023-05-16T04:26:04.698Z,1.25
2023-05-16T04:28:32.975Z,1.42
2023-05-16T04:31:01.441Z,1.42
2023-05-16T04:33:31.046Z,1.55
2023-05-16T04:36:00.308Z,1.77
2023-05-16T04:38:28.453Z,1.60
2023-05-16T04:40:56.636Z,1.23
2023-05-16T04:43:24.818Z,1.48
2023-05-16T04:45:54.176Z,1.75
2023-05-16T04:48:22.422Z,1.75
2023-05-16T04:50:52.518Z,2.25
2023-05-16T04:53:20.790Z,1.55
2023-05-16T04:55:48.851Z,3.67
2023-05-16T04:58:17.105Z,1.40
2023-05-16T05:00:45.280Z,2.63
2023-05-16T05:03:13.457Z,2.17
2023-05-16T05:05:41.628Z,1.48
2023-05-16T05:08:11.382Z,1.58
2023-05-16T05:10:39.536Z,1.55
2023-05-16T05:13:07.702Z,1.70
2023-05-16T05:15:36.025Z,2.22
2023-05-16T05:18:04.539Z,2.22
2023-05-16T05:20:32.966Z,2.13
2023-05-16T05:23:01.221Z,2.00
2023-05-16T05:25:30.848Z,1.60
2023-05-16T05:27:58.994Z,3.10
2023-05-16T05:30:27.284Z,2.15
2023-05-16T05:32:56.527Z,1.85
2023-05-16T05:35:24.987Z,1.73
2023-05-16T05:37:53.712Z,1.85
2023-05-16T05:40:21.802Z,1.60
2023-05-16T05:42:51.356Z,1.90
2023-05-16T05:45:19.691Z,2.25
2023-05-16T05:47:48.014Z,1.70
2023-05-16T05:50:16.915Z,2.78
2023-05-16T05:52:45.217Z,2.92
2023-05-16T05:55:13.313Z,2.45
2023-05-16T05:57:41.457Z,3.22
2023-05-16T06:00:12.941Z,1.90
2023-05-16T06:02:41.569Z,2.40
2023-05-16T06:05:10.735Z,1.77
2023-05-16T06:07:38.916Z,1.92
2023-05-16T06:10:08.714Z,2.10
2023-05-16T06:12:36.877Z,1.98
2023-05-16T06:15:05.747Z,2.33
2023-05-16T06:17:35.629Z,2.00
2023-05-16T06:20:04.213Z,1.85
2023-05-16T06:22:32.725Z,2.38
2023-05-16T06:25:00.949Z,2.55
2023-05-16T06:27:29.109Z,1.77
2023-05-16T06:29:57.734Z,2.05
2023-05-16T06:32:25.969Z,3.03
2023-05-16T06:34:55.712Z,2.20
2023-05-16T06:37:24.693Z,2.03
2023-05-16T06:39:53.060Z,1.70
2023-05-16T06:42:21.650Z,1.92
2023-05-16T06:44:49.934Z,2.30
2023-05-16T06:47:18.186Z,1.63
2023-05-16T06:49:46.331Z,2.00
2023-05-16T06:52:15.994Z,2.20
2023-05-16T06:54:44.287Z,2.58
2023-05-16T06:57:13.507Z,2.15
2023-05-16T06:59:41.789Z,2.35
2023-05-16T07:02:09.988Z,3.15
2023-05-16T07:04:38.879Z,2.22
2023-05-16T07:07:08.374Z,3.00
2023-05-16T07:09:38.087Z,2.35
2023-05-16T07:12:07.076Z,2.40
2023-05-16T07:14:37.946Z,2.28
2023-05-16T07:17:06.658Z,2.40
2023-05-16T07:19:34.824Z,2.80
2023-05-16T07:22:03.117Z,2.58
2023-05-16T07:24:31.439Z,3.05
2023-05-16T07:27:01.048Z,2.88
2023-05-16T07:29:30.482Z,3.35
2023-05-16T07:31:58.745Z,3.25
2023-05-16T07:34:27.150Z,3.10
2023-05-16T07:36:55.461Z,3.42
2023-05-16T07:39:23.605Z,3.42
2023-05-16T07:41:51.774Z,3.30
2023-05-16T07:44:21.322Z,3.10
2023-05-16T07:46:49.510Z,3.17
2023-05-16T07:49:17.757Z,3.47
2023-05-16T07:51:46.175Z,3.47
2023-05-16T07:54:14.316Z,2.95
2023-05-16T07:56:42.510Z,3.20
2023-05-16T07:59:10.981Z,3.08
2023-05-16T08:01:40.621Z,4.70
2023-05-16T08:04:08.809Z,3.95
2023-05-16T08:06:37.321Z,3.47
2023-05-16T08:09:05.883Z,3.35
2023-05-16T08:11:34.171Z,4.07
2023-05-16T08:14:02.362Z,4.57
2023-05-16T08:16:31.438Z,3.97
2023-05-16T08:19:01.175Z,3.50
2023-05-16T08:21:30.002Z,3.72
2023-05-16T08:23:58.237Z,3.47
2023-05-16T08:26:26.617Z,4.00
2023-05-16T08:28:54.830Z,3.63
2023-05-16T08:31:23.017Z,4.30
2023-05-16T08:33:51.341Z,4.55
2023-05-16T08:36:20.911Z,3.63
2023-05-16T08:38:51.158Z,3.33
2023-05-16T08:41:19.579Z,4.20
2023-05-16T08:43:47.904Z,3.55
2023-05-16T08:46:17.424Z,3.80
2023-05-16T08:48:48.504Z,3.45
2023-05-16T08:51:19.197Z,6.35
2023-05-16T08:54:05.679Z,3.97
2023-05-16T08:56:35.653Z,5.05
2023-05-16T08:59:04.704Z,3.55
2023-05-16T09:01:33.382Z,3.55
2023-05-16T09:04:02.501Z,5.20
2023-05-16T09:06:31.145Z,4.32
2023-05-16T09:09:00.855Z,4.18
2023-05-16T09:11:30.156Z,3.53
2023-05-16T09:13:58.364Z,4.63
2023-05-16T09:16:26.547Z,4.38
2023-05-16T09:18:58.272Z,3.70
2023-05-16T09:21:29.908Z,4.55
2023-05-16T09:26:28.116Z,5.10
2023-05-16T09:28:56.981Z,3.20
2023-05-16T09:31:27.124Z,3.88
2023-05-16T09:33:57.311Z,3.53
2023-05-16T09:36:25.519Z,4.15
2023-05-16T09:38:54.470Z,3.67
2023-05-16T09:41:23.690Z,4.18
2023-05-16T09:43:53.308Z,3.40
2023-05-16T09:46:28.089Z,4.07
2023-05-16T09:48:56.852Z,3.75
2023-05-16T09:51:24.999Z,4.18
2023-05-16T09:53:53.721Z,3.20
2023-05-16T09:56:22.022Z,3.78
2023-05-16T09:58:54.840Z,2.92
2023-05-16T10:01:24.992Z,3.90
2023-05-16T10:03:53.569Z,4.18
2023-05-16T10:06:22.992Z,3.70
2023-05-16T10:08:52.207Z,3.58
2023-05-16T10:11:21.833Z,3.92
2023-05-16T10:13:53.564Z,3.35
2023-05-16T10:16:24.766Z,3.55
2023-05-16T10:18:53.602Z,3.58
2023-05-16T10:21:24.672Z,3.40
2023-05-16T10:23:53.794Z,3.55
2023-05-16T10:26:23.805Z,4.45
2023-05-16T10:28:53.041Z,3.50
2023-05-16T10:31:23.019Z,4.45
2023-05-16T10:33:51.809Z,4.57
2023-05-16T10:36:20.494Z,5.70
2023-05-16T10:38:49.958Z,5.90
2023-05-16T10:41:18.540Z,4.22
2023-05-16T10:43:57.595Z,3.80
2023-05-16T10:46:30.345Z,3.83
2023-05-16T10:48:59.073Z,3.58
2023-05-16T10:51:38.831Z,3.33
2023-05-16T10:54:09.488Z,4.55
2023-05-16T10:56:38.329Z,4.43
2023-05-16T10:59:23.268Z,4.15
2023-05-16T11:01:56.567Z,3.17
2023-05-16T11:04:25.240Z,4.88
2023-05-16T11:06:56.702Z,4.47
2023-05-16T11:12:04.129Z,3.95
2023-05-16T11:14:40.125Z,2.97
2023-05-16T11:17:12.125Z,3.80
2023-05-16T11:19:45.512Z,3.90
2023-05-16T11:22:23.115Z,3.20
2023-05-16T11:25:01.106Z,3.70
2023-05-16T11:27:31.521Z,4.05
2023-05-16T11:30:13.004Z,4.32
2023-05-16T11:32:44.471Z,3.88
2023-05-16T11:35:15.144Z,3.90
2023-05-16T11:37:44.086Z,4.05
2023-05-16T11:40:14.819Z,3.78
2023-05-16T11:42:44.492Z,4.00
2023-05-16T11:45:16.505Z,3.92
2023-05-16T11:47:48.814Z,4.53
2023-05-16T11:50:18.500Z,4.13
2023-05-16T11:52:48.557Z,4.35
2023-05-16T11:55:28.139Z,4.25
2023-05-16T11:58:07.030Z,3.50
2023-05-16T12:00:35.303Z,4.72
2023-05-16T12:03:06.549Z,5.25
2023-05-16T12:08:04.908Z,3.63
2023-05-16T12:10:34.836Z,3.60
2023-05-16T12:13:04.615Z,3.75
2023-05-16T12:15:33.253Z,4.50
2023-05-16T12:18:02.686Z,4.55
2023-05-16T12:20:32.362Z,4.10
2023-05-16T12:23:00.566Z,3.63
2023-05-16T12:25:30.940Z,4.38
2023-05-16T12:28:01.148Z,3.37
2023-05-16T12:30:31.364Z,4.70
2023-05-16T12:33:00.947Z,3.63
2023-05-16T12:35:34.177Z,5.13
2023-05-16T12:38:05.483Z,4.68
2023-05-16T12:40:33.829Z,4.00
2023-05-16T12:43:02.835Z,3.45
2023-05-16T12:45:32.325Z,4.15
2023-05-16T12:48:07.860Z,4.28
2023-05-16T12:50:37.501Z,4.10
2023-05-16T12:53:05.734Z,5.00
2023-05-16T12:55:34.206Z,3.63
2023-05-16T12:58:03.163Z,4.40
2023-05-16T13:00:32.088Z,3.47
2023-05-16T13:03:00.449Z,3.88
2023-05-16T13:05:28.694Z,3.75
2023-05-16T13:07:58.548Z,3.60
2023-05-16T13:10:27.273Z,3.17
2023-05-16T13:12:58.550Z,4.03
2023-05-16T13:15:27.971Z,3.65
2023-05-16T13:17:56.526Z,3.92
2023-05-16T13:20:24.828Z,4.00
2023-05-16T13:22:52.965Z,3.53
2023-05-16T13:25:22.888Z,3.70
2023-05-16T13:27:52.479Z,3.45
2023-05-16T13:30:21.461Z,3.25
2023-05-16T13:32:49.827Z,4.20
2023-05-16T13:35:18.393Z,3.90
2023-05-16T13:37:46.735Z,3.38
2023-05-16T13:40:14.950Z,3.55
2023-05-16T13:42:44.531Z,2.95
2023-05-16T13:45:12.742Z,3.67
2023-05-16T13:47:41.710Z,3.35
2023-05-16T13:50:12.388Z,3.45
2023-05-16T13:52:40.858Z,4.13
2023-05-16T13:55:09.751Z,3.65
2023-05-16T13:57:38.458Z,3.58
2023-05-16T14:02:44.197Z,3.28
2023-05-16T14:05:12.359Z,3.88
2023-05-16T14:07:41.234Z,3.53
2023-05-16T14:10:10.745Z,3.47
2023-05-16T14:12:39.082Z,3.53
2023-05-16T14:15:10.068Z,3.92
2023-05-16T14:17:38.552Z,3.78
2023-05-16T14:20:10.321Z,3.83
2023-05-16T14:22:39.161Z,3.58
2023-05-16T14:25:08.436Z,4.00
2023-05-16T14:27:36.701Z,3.33
2023-05-16T14:30:05.774Z,3.42
2023-05-16T14:32:35.476Z,3.10
2023-05-16T14:35:05.505Z,4.22
2023-05-16T14:37:33.764Z,3.83
2023-05-16T14:40:02.056Z,4.22
2023-05-16T14:42:30.321Z,2.90
2023-05-16T14:44:58.548Z,3.88
2023-05-16T14:47:27.687Z,3.83
2023-05-16T14:49:57.393Z,3.58
2023-05-16T14:52:25.585Z,3.05
2023-05-16T14:54:53.791Z,3.65
2023-05-16T14:57:22.442Z,3.03
2023-05-16T14:59:51.202Z,3.00
2023-05-16T15:02:19.372Z,3.60
2023-05-16T15:04:47.743Z,3.00
2023-05-16T15:07:17.425Z,3.63
2023-05-16T15:09:45.706Z,3.10
2023-05-16T15:12:13.988Z,2.90
2023-05-16T15:14:42.222Z,3.42
2023-05-16T15:17:10.390Z,3.72
2023-05-16T15:19:38.714Z,3.85
2023-05-16T15:22:07.943Z,3.08
2023-05-16T15:24:37.717Z,3.25
2023-05-16T15:27:06.372Z,2.90
2023-05-16T15:29:34.475Z,3.42
2023-05-16T15:32:06.297Z,4.28
2023-05-16T15:34:36.690Z,3.50
2023-05-16T15:37:05.135Z,3.75
2023-05-16T15:39:33.425Z,3.70
2023-05-16T15:44:36.750Z,4.43
2023-05-16T15:47:05.589Z,4.13
2023-05-16T15:49:33.738Z,4.55
2023-05-16T15:52:02.123Z,3.65
2023-05-16T15:54:30.435Z,3.63
2023-05-16T15:56:58.856Z,3.97
2023-05-16T15:59:28.569Z,4.00
2023-05-16T16:01:56.900Z,3.97
2023-05-16T16:04:25.150Z,4.25
2023-05-16T16:06:53.520Z,3.63
2023-05-16T16:09:21.778Z,3.88
2023-05-16T16:11:50.435Z,3.55
2023-05-16T16:14:19.005Z,4.18
2023-05-16T16:16:48.577Z,4.13
2023-05-16T16:19:16.822Z,3.78
2023-05-16T16:21:45.214Z,4.93
2023-05-16T16:24:13.736Z,3.65
2023-05-16T16:26:43.081Z,4.85
2023-05-16T16:29:11.294Z,3.58
2023-05-16T16:31:39.645Z,4.07
2023-05-16T16:34:09.241Z,3.42
2023-05-16T16:36:37.390Z,4.18
2023-05-16T16:39:06.100Z,3.80
2023-05-16T16:41:34.236Z,4.03
2023-05-16T16:44:02.457Z,3.85
2023-05-16T16:46:30.719Z,3.25
2023-05-16T16:48:58.960Z,3.85
2023-05-16T16:51:31.385Z,4.05
2023-05-16T16:53:59.951Z,4.25
2023-05-16T16:56:30.212Z,4.53
2023-05-16T16:58:58.452Z,4.15
2023-05-16T17:01:29.685Z,3.63
2023-05-16T17:03:58.593Z,3.72
2023-05-16T17:06:30.145Z,3.33
2023-05-16T17:09:02.495Z,3.45
2023-05-16T17:11:30.890Z,3.78
2023-05-16T17:13:59.886Z,4.30
2023-05-16T17:16:29.496Z,3.80
2023-05-16T17:18:57.896Z,2.33
2023-05-16T17:21:26.898Z,2.42
2023-05-16T17:23:58.260Z,2.22
2023-05-16T17:28:56.765Z,2.40
2023-05-16T17:31:25.256Z,2.60
2023-05-16T17:33:54.011Z,3.67
2023-05-16T17:36:22.214Z,3.28
2023-05-16T17:38:50.706Z,3.08
2023-05-16T17:41:22.140Z,2.70
2023-05-16T17:46:18.488Z,2.83
2023-05-16T17:48:46.664Z,2.60
2023-05-16T17:51:14.957Z,3.28
2023-05-16T17:53:43.482Z,2.35
2023-05-16T17:56:11.768Z,2.60
2023-05-16T17:58:41.901Z,2.78
2023-05-16T18:01:10.364Z,2.38
2023-05-16T18:03:38.736Z,2.40
2023-05-16T18:06:07.236Z,3.03
2023-05-16T18:08:36.118Z,2.65
2023-05-16T18:11:04.453Z,3.17
2023-05-16T18:13:33.047Z,2.20
2023-05-16T18:16:02.935Z,2.00
2023-05-16T18:18:31.882Z,2.53
2023-05-16T18:21:00.137Z,2.35
2023-05-16T18:23:28.299Z,2.33
2023-05-16T18:25:56.585Z,3.17
2023-05-16T18:28:24.802Z,2.50
2023-05-16T18:30:53.288Z,2.80
2023-05-16T18:33:22.897Z,2.67
2023-05-16T18:35:51.542Z,2.13
2023-05-16T18:38:31.513Z,2.45
2023-05-16T18:41:01.556Z,2.50
2023-05-16T18:43:30.157Z,2.65
2023-05-16T18:45:59.164Z,2.72
2023-05-16T18:48:29.314Z,2.72
2023-05-16T18:50:57.663Z,2.72
2023-05-16T18:53:25.984Z,3.58
2023-05-16T18:55:54.276Z,3.78
2023-05-16T18:58:24.555Z,3.72
2023-05-16T19:00:52.975Z,2.85
2023-05-16T19:03:21.315Z,3.60
2023-05-16T19:05:51.344Z,4.20
2023-05-16T19:08:19.601Z,3.47
2023-05-16T19:10:47.832Z,3.47
2023-05-16T19:13:16.196Z,5.47
2023-05-16T19:15:44.499Z,4.03
2023-05-16T19:18:13.149Z,3.00
2023-05-16T19:20:44.930Z,3.40
2023-05-16T19:23:15.249Z,3.60
2023-05-16T19:25:47.848Z,3.80
2023-05-16T19:28:16.839Z,3.83
2023-05-16T19:30:45.387Z,4.60
2023-05-16T19:33:13.781Z,3.72
2023-05-16T19:35:41.942Z,3.45
2023-05-16T19:38:10.229Z,4.32
2023-05-16T19:40:39.924Z,3.40
2023-05-16T19:43:08.091Z,3.45
2023-05-16T19:45:36.366Z,2.85
2023-05-16T19:48:04.887Z,3.75
2023-05-16T19:50:33.231Z,3.88
2023-05-16T19:53:01.452Z,4.15
2023-05-16T19:55:31.490Z,4.60
2023-05-16T19:58:01.277Z,3.70
2023-05-16T20:00:29.818Z,3.95
2023-05-16T20:02:58.196Z,3.97
2023-05-16T20:05:27.124Z,4.03
2023-05-16T20:07:56.317Z,4.05
2023-05-16T20:10:24.847Z,4.30
2023-05-16T20:12:53.173Z,3.95
2023-05-16T20:15:22.779Z,4.07
2023-05-16T20:17:51.401Z,5.53
2023-05-16T20:20:19.712Z,4.18
2023-05-16T20:22:47.993Z,4.15
2023-05-16T20:25:16.250Z,3.72
2023-05-16T20:27:44.379Z,4.22
2023-05-16T20:30:13.504Z,4.57
2023-05-16T20:32:43.326Z,4.18
2023-05-16T20:35:14.504Z,4.40
2023-05-16T20:37:42.777Z,4.25
2023-05-16T20:40:11.701Z,4.60
2023-05-16T20:42:39.870Z,4.20
2023-05-16T20:45:09.076Z,5.03
2023-05-16T20:47:37.258Z,4.47
2023-05-16T20:50:08.466Z,4.88
2023-05-16T20:52:36.722Z,4.60
2023-05-16T20:55:05.302Z,5.13
2023-05-16T20:57:33.482Z,4.80
2023-05-16T21:00:01.721Z,4.43
2023-05-16T21:02:29.945Z,4.90
2023-05-16T21:05:02.137Z,5.47
2023-05-16T21:07:39.745Z,4.68
2023-05-16T21:10:08.888Z,4.93
2023-05-16T21:12:37.107Z,4.78
2023-05-16T21:15:06.145Z,4.35
2023-05-16T21:17:34.484Z,4.15
2023-05-16T21:20:03.909Z,5.10
2023-05-16T21:22:32.384Z,5.30
2023-05-16T21:25:02.086Z,5.03
2023-05-16T21:27:30.362Z,4.80
2023-05-16T21:29:58.634Z,4.95
2023-05-16T21:32:32.013Z,5.38
2023-05-16T21:35:01.265Z,6.20
2023-05-16T21:37:29.471Z,4.65
2023-05-16T21:39:57.638Z,4.50
2023-05-16T21:42:27.345Z,4.63
2023-05-16T21:44:55.446Z,4.45
2023-05-16T21:47:23.663Z,4.45
2023-05-16T21:49:52.040Z,4.63
2023-05-16T21:52:20.399Z,4.65
2023-05-16T21:54:52.048Z,5.22
2023-05-16T21:57:20.640Z,4.82
2023-05-16T21:59:51.892Z,4.72
2023-05-16T22:02:23.140Z,5.38
2023-05-16T22:04:52.381Z,3.60
2023-05-16T22:07:20.989Z,5.60
2023-05-16T22:09:53.648Z,5.28
2023-05-16T22:12:22.396Z,5.13
2023-05-16T22:14:52.170Z,4.38
2023-05-16T22:17:20.778Z,4.65
2023-05-16T22:19:49.163Z,4.95
2023-05-16T22:22:17.847Z,5.40
2023-05-16T22:24:46.340Z,4.47
2023-05-16T22:27:14.571Z,4.97
2023-05-16T22:29:42.728Z,5.00
2023-05-16T22:32:12.518Z,5.00
2023-05-16T22:34:40.904Z,4.70
2023-05-16T22:37:09.501Z,4.40
2023-05-16T22:39:37.917Z,4.78
2023-05-16T22:42:06.665Z,4.95
2023-05-16T22:44:35.004Z,5.07
2023-05-16T22:47:03.668Z,5.63
2023-05-16T22:49:33.313Z,4.93
2023-05-16T22:52:01.619Z,4.60
2023-05-16T22:54:29.889Z,5.22
2023-05-16T22:56:58.218Z,4.80
2023-05-16T22:59:26.475Z,4.88
2023-05-16T23:01:55.091Z,4.97
2023-05-16T23:04:23.412Z,5.07
2023-05-16T23:06:53.122Z,5.13
2023-05-16T23:09:21.423Z,4.78
2023-05-16T23:11:49.649Z,5.30
2023-05-16T23:14:17.921Z,5.30
2023-05-16T23:16:46.071Z,5.13
2023-05-16T23:19:14.329Z,5.95
2023-05-16T23:21:42.923Z,6.82
2023-05-16T23:24:12.669Z,5.38
2023-05-16T23:26:40.979Z,5.65
2023-05-16T23:29:09.189Z,5.88
2023-05-16T23:31:37.465Z,6.03
2023-05-16T23:34:05.722Z,4.97
2023-05-16T23:36:34.101Z,6.05
2023-05-16T23:39:02.408Z,6.50
2023-05-16T23:41:32.179Z,5.82
2023-05-16T23:44:00.641Z,5.15
2023-05-16T23:46:28.872Z,5.22
2023-05-16T23:48:58.069Z,5.60
2023-05-16T23:51:26.490Z,6.57
2023-05-16T23:53:55.653Z,6.50
2023-05-16T23:56:23.983Z,6.13
2023-05-16T23:58:53.545Z,4.93
